Time;durP1;ratioP1;P1;durP2;ratioP2;P2;SDS_P1;SDS_P2;PMS_P1;PMS_P2;Temp;Humidity;BMP_temperature;BMP_pressure;BME280_temperature;BME280_humidity;BME280_pressure;Samples;Min_cycle;Max_cycle;Signal;HPM_P1;HPM_P2
2022/04/08 00:00:24;;;;;;;8.45;1.60;;;;;;;8.63;72.38;97444.91;5093288;28;20496;-60
2022/04/08 00:02:52;;;;;;;7.82;1.30;;;;;;;8.63;72.56;97447.53;5093635;28;20106;-61
2022/04/08 00:05:19;;;;;;;9.65;1.58;;;;;;;8.66;72.71;97447.25;5093664;28;20055;-61
2022/04/08 00:07:45;;;;;;;7.60;1.70;;;;;;;8.68;72.16;97447.13;5093210;28;20097;-60
2022/04/08 00:10:13;;;;;;;8.02;1.60;;;;;;;8.66;72.42;97470.03;5093081;28;20488;-61
2022/04/08 00:12:40;;;;;;;8.38;1.55;;;;;;;8.66;72.38;97480.50;5093031;28;20136;-60
2022/04/08 00:15:07;;;;;;;9.95;1.98;;;;;;;8.66;72.24;97488.38;5093266;28;20048;-60
2022/04/08 00:17:33;;;;;;;6.00;1.55;;;;;;;8.65;72.12;97484.09;5093309;28;20056;-60
2022/04/08 00:20:00;;;;;;;9.77;1.83;;;;;;;8.64;71.81;97482.44;5092844;28;20064;-61
2022/04/08 00:22:27;;;;;;;12.77;2.63;;;;;;;8.63;72.17;97489.47;5092751;28;20060;-61
2022/04/08 00:24:54;;;;;;;6.63;1.10;;;;;;;8.60;72.09;97495.00;5092821;28;20734;-61
2022/04/08 00:27:20;;;;;;;4.10;1.00;;;;;;;8.57;71.72;97506.56;5092916;28;20134;-62
2022/04/08 00:29:47;;;;;;;4.32;1.00;;;;;;;8.55;71.58;97518.16;5091348;28;20052;-61
2022/04/08 00:32:13;;;;;;;6.88;1.00;;;;;;;8.52;71.71;97531.50;5092673;28;20063;-60
2022/04/08 00:34:40;;;;;;;5.00;0.95;;;;;;;8.47;71.89;97527.47;5092676;28;20048;-59
2022/04/08 00:37:07;;;;;;;2.25;0.80;;;;;;;8.41;71.92;97543.72;5092617;28;20052;-60
2022/04/08 00:39:34;;;;;;;3.45;0.85;;;;;;;8.35;71.96;97546.84;5092775;28;20393;-60
2022/04/08 00:42:03;;;;;;;5.05;1.23;;;;;;;8.29;72.28;97563.09;5092427;28;20040;-60
2022/04/08 00:44:31;;;;;;;3.70;0.95;;;;;;;8.24;72.60;97553.00;5091299;28;20055;-61
2022/04/08 00:46:58;;;;;;;2.92;0.95;;;;;;;8.18;72.74;97567.44;5091235;28;20084;-60
2022/04/08 00:49:24;;;;;;;4.05;0.93;;;;;;;8.14;72.91;97568.66;5092125;28;20097;-60
2022/04/08 00:51:51;;;;;;;2.28;0.77;;;;;;;8.10;72.94;97574.28;5092586;28;20056;-60
2022/04/08 00:54:19;;;;;;;3.85;1.27;;;;;;;8.06;73.18;97565.81;5091199;28;20050;-61
2022/04/08 00:56:46;;;;;;;5.07;1.08;;;;;;;8.05;73.29;97585.13;5092353;28;20458;-60
2022/04/08 00:59:12;;;;;;;5.22;1.23;;;;;;;8.02;73.03;97598.47;5092030;28;20060;-60
2022/04/08 01:01:39;;;;;;;5.43;1.30;;;;;;;8.00;73.54;97592.53;5091983;28;20052;-62
2022/04/08 01:04:07;;;;;;;9.90;1.70;;;;;;;7.96;73.36;97597.19;5092108;28;20488;-61
2022/04/08 01:06:35;;;;;;;4.78;1.38;;;;;;;7.93;73.90;97595.63;5092051;28;20052;-60
2022/04/08 01:09:02;;;;;;;5.25;1.20;;;;;;;7.94;73.68;97618.28;5090696;28;20492;-59
2022/04/08 01:11:28;;;;;;;5.43;1.20;;;;;;;7.92;73.77;97617.56;5091660;28;20086;-60
2022/04/08 01:13:55;;;;;;;6.00;1.20;;;;;;;7.94;74.06;97627.91;5092494;28;20059;-60
2022/04/08 01:16:22;;;;;;;4.63;1.45;;;;;;;7.94;74.45;97638.41;5091899;28;20512;-61
2022/04/08 01:18:49;;;;;;;5.63;1.23;;;;;;;7.94;74.08;97641.88;5091994;28;20480;-60
2022/04/08 01:21:16;;;;;;;1.48;0.75;;;;;;;7.96;73.89;97641.72;5091826;28;20048;-63
2022/04/08 01:23:47;;;;;;;7.57;1.15;;;;;;;7.94;73.35;97644.47;5090601;28;20063;-60
2022/04/08 01:26:14;;;;;;;2.75;0.85;;;;;;;7.94;73.65;97649.72;5090678;28;20101;-60
2022/04/08 01:28:43;;;;;;;2.83;1.00;;;;;;;7.91;73.40;97660.44;5090795;28;20496;-60
2022/04/08 01:31:09;;;;;;;2.10;0.80;;;;;;;7.87;73.08;97661.63;5090215;28;20048;-59
2022/04/08 01:33:36;;;;;;;1.50;0.70;;;;;;;7.84;73.20;97666.28;5090467;28;20051;-62
2022/04/08 01:36:03;;;;;;;2.40;0.77;;;;;;;7.79;73.40;97677.97;5091982;28;20051;-61
2022/04/08 01:38:29;;;;;;;3.78;0.88;;;;;;;7.75;73.38;97665.22;5091749;28;20060;-59
2022/04/08 01:40:56;;;;;;;2.55;1.02;;;;;;;7.71;73.39;97693.44;5091050;28;20478;-62
2022/04/08 01:43:22;;;;;;;2.58;0.68;;;;;;;7.68;73.57;97698.91;5091377;28;20456;-61
2022/04/08 01:45:49;;;;;;;3.42;0.73;;;;;;;7.64;73.61;97689.63;5091811;28;20040;-61
2022/04/08 01:48:17;;;;;;;2.22;0.80;;;;;;;7.58;73.09;97701.41;5091756;28;20101;-61
2022/04/08 01:50:43;;;;;;;1.67;0.50;;;;;;;7.55;73.31;97693.78;5090084;28;20056;-61
2022/04/08 01:53:10;;;;;;;1.73;0.60;;;;;;;7.51;73.42;97710.72;5091409;28;20169;-60
2022/04/08 01:55:37;;;;;;;3.47;0.77;;;;;;;7.47;73.34;97709.28;5091286;28;20496;-61
2022/04/08 01:58:03;;;;;;;3.72;1.27;;;;;;;7.43;73.52;97708.66;5091105;28;20077;-60
2022/04/08 02:00:31;;;;;;;4.35;0.50;;;;;;;7.38;73.57;97726.53;5091310;28;20549;-60
2022/04/08 02:02:57;;;;;;;1.05;0.52;;;;;;;7.37;73.76;97732.72;5090059;28;20076;-60
2022/04/08 02:05:24;;;;;;;4.57;0.82;;;;;;;7.34;73.79;97735.56;5091235;28;20064;-60
2022/04/08 02:07:53;;;;;;;4.38;0.88;;;;;;;7.31;74.08;97731.41;5089885;28;20093;-60
2022/04/08 02:10:20;;;;;;;4.78;0.77;;;;;;;7.31;74.08;97754.94;5090831;28;20095;-61
2022/04/08 02:12:46;;;;;;;3.05;1.15;;;;;;;7.29;74.28;97746.41;5090753;28;20089;-60
2022/04/08 02:15:13;;;;;;;0.85;0.40;;;;;;;7.29;73.96;97755.06;5091100;28;20408;-60
2022/04/08 02:17:40;;;;;;;0.75;0.47;;;;;;;7.26;73.99;97771.00;5090976;28;20504;-60
2022/04/08 02:20:10;;;;;;;1.52;0.60;;;;;;;7.25;74.27;97779.78;5090734;28;20161;-60
2022/04/08 02:22:37;;;;;;;2.58;0.75;;;;;;;7.25;74.52;97786.84;5089651;28;20520;-61
2022/04/08 02:25:05;;;;;;;1.45;0.52;;;;;;;7.24;74.15;97785.13;5090535;28;20393;-61
2022/04/08 02:27:32;;;;;;;2.78;0.68;;;;;;;7.23;74.52;97788.72;5089436;28;20534;-60
2022/04/08 02:29:59;;;;;;;1.63;0.50;;;;;;;7.22;74.48;97797.53;5090905;28;20059;-60
2022/04/08 02:32:26;;;;;;;0.98;0.50;;;;;;;7.22;74.32;97805.38;5090608;28;20059;-63
2022/04/08 02:34:52;;;;;;;3.75;0.60;;;;;;;7.21;74.83;97811.56;5090695;28;20097;-60
2022/04/08 02:37:19;;;;;;;3.28;0.60;;;;;;;7.21;74.61;97819.41;5090507;28;20055;-62
2022/04/08 02:39:46;;;;;;;3.60;0.70;;;;;;;7.21;74.75;97819.41;5090291;28;20052;-61
2022/04/08 02:42:12;;;;;;;2.10;0.50;;;;;;;7.21;74.77;97811.56;5090824;28;20048;-60
2022/04/08 02:44:39;;;;;;;1.52;0.50;;;;;;;7.20;74.37;97820.34;5089190;28;20052;-60
2022/04/08 02:47:05;;;;;;;1.15;0.43;;;;;;;7.19;74.30;97822.13;5090691;28;20052;-61
2022/04/08 02:49:32;;;;;;;0.88;0.40;;;;;;;7.19;74.43;97823.91;5090292;28;20056;-60
2022/04/08 02:51:59;;;;;;;1.38;0.55;;;;;;;7.17;74.41;97830.09;5090478;28;20101;-60
2022/04/08 02:54:26;;;;;;;0.80;0.30;;;;;;;7.14;74.07;97834.72;5094395;28;20626;-60
2022/04/08 02:56:52;;;;;;;1.63;0.55;;;;;;;7.11;74.34;97835.75;5094792;28;20048;-59
2022/04/08 02:59:19;;;;;;;2.33;0.50;;;;;;;7.10;74.16;97839.34;5094253;28;20048;-61
2022/04/08 03:01:46;;;;;;;2.72;0.60;;;;;;;7.07;74.31;97852.66;5094540;28;20055;-62
2022/04/08 03:04:13;;;;;;;1.65;0.43;;;;;;;7.03;73.83;97859.88;5094457;28;20048;-60
2022/04/08 03:06:40;;;;;;;2.85;0.98;;;;;;;7.02;73.92;97862.59;5094663;28;20048;-60
2022/04/08 03:09:06;;;;;;;4.00;0.90;;;;;;;6.99;73.64;97857.63;5092894;28;20063;-64
2022/04/08 03:11:33;;;;;;;3.47;0.50;;;;;;;6.95;73.64;97867.47;5094369;28;20113;-61
2022/04/08 03:14:02;;;;;;;1.55;0.60;;;;;;;6.93;73.58;97855.44;5094332;28;20048;-62
2022/04/08 03:16:29;;;;;;;4.53;0.57;;;;;;;6.90;73.54;97878.28;5092933;28;20192;-60
2022/04/08 03:18:55;;;;;;;5.28;1.02;;;;;;;6.87;73.13;97869.78;5094198;28;20040;-60
2022/04/08 03:21:22;;;;;;;2.15;0.80;;;;;;;6.84;73.30;97865.63;5093868;28;20048;-60
2022/04/08 03:23:48;;;;;;;2.20;0.75;;;;;;;6.81;72.82;97873.69;5094099;28;20466;-61
2022/04/08 03:26:16;;;;;;;4.75;1.05;;;;;;;6.76;72.70;97862.72;5094345;28;20071;-60
2022/04/08 03:28:46;;;;;;;3.45;0.82;;;;;;;6.70;72.54;97874.47;5092873;28;20105;-62
2022/04/08 03:31:12;;;;;;;2.75;0.90;;;;;;;6.67;73.00;97884.28;5092508;28;20098;-63
2022/04/08 03:33:39;;;;;;;3.95;0.88;;;;;;;6.61;73.31;97875.94;5093993;28;20048;-61
2022/04/08 03:36:06;;;;;;;6.70;1.35;;;;;;;6.57;73.68;97884.09;5093822;28;20454;-60
2022/04/08 03:38:33;;;;;;;4.65;1.20;;;;;;;6.55;73.71;97896.47;5094063;28;20059;-61
2022/04/08 03:41:00;;;;;;;6.43;1.50;;;;;;;6.53;73.81;97891.34;5093519;28;20051;-60
2022/04/08 03:43:30;;;;;;;8.95;2.08;;;;;;;6.51;74.01;97882.78;5093896;28;20044;-60
2022/04/08 03:45:57;;;;;;;13.85;1.40;;;;;;;6.51;74.05;97880.19;5093460;28;20052;-61
2022/04/08 03:48:23;;;;;;;5.80;1.40;;;;;;;6.50;74.00;97891.53;5093731;28;20049;-60
2022/04/08 03:50:51;;;;;;;7.10;1.90;;;;;;;6.49;73.91;97901.19;5093599;28;20055;-61
2022/04/08 03:53:17;;;;;;;3.30;1.10;;;;;;;6.50;73.93;97899.38;5093635;28;20047;-61
2022/04/08 03:55:44;;;;;;;3.05;0.82;;;;;;;6.49;74.23;97910.78;5093529;28;20397;-60
2022/04/08 03:58:10;;;;;;;8.43;1.60;;;;;;;6.49;74.18;97903.81;5093520;28;20075;-60
2022/04/08 04:00:40;;;;;;;5.63;1.42;;;;;;;6.48;73.83;97920.44;5093100;28;20074;-61
2022/04/08 04:03:06;;;;;;;5.03;1.10;;;;;;;6.48;74.12;97924.81;5093061;28;20492;-60
2022/04/08 04:05:40;;;;;;;6.75;1.42;;;;;;;6.46;74.12;97919.69;5093410;28;20051;-60
2022/04/08 04:08:08;;;;;;;7.65;1.80;;;;;;;6.45;73.73;97936.31;5093377;28;20052;-60
2022/04/08 04:10:35;;;;;;;7.80;1.45;;;;;;;6.44;73.93;97936.44;5093060;28;20107;-63
2022/04/08 04:13:02;;;;;;;7.70;1.77;;;;;;;6.43;74.43;97942.59;5092070;28;20097;-59
2022/04/08 04:15:29;;;;;;;8.75;1.63;;;;;;;6.42;74.23;97935.72;5093077;28;20083;-61
2022/04/08 04:17:56;;;;;;;4.72;1.45;;;;;;;6.39;74.06;97937.56;5092907;28;20059;-61
2022/04/08 04:20:23;;;;;;;9.75;2.05;;;;;;;6.37;73.58;97936.00;5091676;28;20052;-60
2022/04/08 04:22:50;;;;;;;7.95;1.45;;;;;;;6.33;73.67;97940.63;5093100;28;20385;-60
2022/04/08 04:25:17;;;;;;;7.65;1.40;;;;;;;6.31;73.95;97939.88;5091697;28;20412;-60
2022/04/08 04:27:44;;;;;;;8.10;1.83;;;;;;;6.29;74.12;97949.63;5092833;28;20416;-61
2022/04/08 04:30:10;;;;;;;10.32;2.25;;;;;;;6.27;74.40;97948.88;5092547;28;20052;-60
2022/04/08 04:32:37;;;;;;;13.05;2.33;;;;;;;6.25;74.35;97953.38;5091688;28;20048;-60
2022/04/08 04:35:07;;;;;;;15.07;2.05;;;;;;;6.26;74.37;97957.66;5092884;28;20056;-62
2022/04/08 04:37:35;;;;;;;11.45;1.98;;;;;;;6.23;74.43;97956.09;5091798;28;20047;-61
2022/04/08 04:40:03;;;;;;;13.57;2.05;;;;;;;6.24;74.60;97956.91;5091251;28;20048;-62
2022/04/08 04:42:30;;;;;;;9.90;1.77;;;;;;;6.25;74.66;97966.44;5092775;28;20052;-60
2022/04/08 04:44:57;;;;;;;11.82;2.45;;;;;;;6.26;74.87;97962.88;5092801;28;20052;-61
2022/04/08 04:47:24;;;;;;;10.90;1.80;;;;;;;6.27;74.44;97969.78;5091464;28;20448;-61
2022/04/08 04:49:50;;;;;;;15.07;2.45;;;;;;;6.28;74.31;97963.59;5092285;28;20051;-61
2022/04/08 04:52:17;;;;;;;8.82;2.10;;;;;;;6.29;74.43;97962.69;5092398;28;20094;-60
2022/04/08 04:54:44;;;;;;;8.05;2.15;;;;;;;6.30;74.11;97963.50;5092529;28;20062;-61
2022/04/08 04:57:10;;;;;;;8.70;1.90;;;;;;;6.32;74.19;97967.69;5092133;28;20446;-62
2022/04/08 04:59:37;;;;;;;9.55;2.20;;;;;;;6.33;74.28;97963.31;5092420;28;20064;-61
2022/04/08 05:02:04;;;;;;;8.82;2.00;;;;;;;6.33;74.29;97958.91;5092064;28;20052;-60
2022/04/08 05:04:31;;;;;;;10.07;2.25;;;;;;;6.35;73.95;97962.25;5092205;28;20048;-61
2022/04/08 05:06:57;;;;;;;11.93;2.10;;;;;;;6.34;73.93;97960.59;5092035;28;20048;-62
2022/04/08 05:09:24;;;;;;;9.98;2.17;;;;;;;6.34;73.66;97971.03;5092049;28;20048;-60
2022/04/08 05:11:50;;;;;;;6.85;1.85;;;;;;;6.36;73.65;97973.56;5092033;28;20056;-60
2022/04/08 05:14:17;;;;;;;10.38;2.05;;;;;;;6.34;73.43;97976.25;5092241;28;20539;-59
2022/04/08 05:16:44;;;;;;;13.43;2.53;;;;;;;6.33;73.15;97978.97;5091174;28;20051;-61
2022/04/08 05:19:11;;;;;;;15.98;2.47;;;;;;;6.31;73.00;97983.50;5090325;28;20509;-61
2022/04/08 05:21:38;;;;;;;10.85;3.08;;;;;;;6.28;73.06;97981.91;5091765;28;20097;-60
2022/04/08 05:24:05;;;;;;;11.93;2.35;;;;;;;6.25;73.22;98003.03;5091556;28;20058;-60
2022/04/08 05:26:31;;;;;;;16.38;3.17;;;;;;;6.21;73.04;97997.16;5090551;28;20060;-60
2022/04/08 05:28:58;;;;;;;6.25;1.75;;;;;;;6.20;73.08;97992.06;5091644;28;20044;-61
2022/04/08 05:31:24;;;;;;;8.85;2.05;;;;;;;6.18;73.27;97996.53;5091544;28;20381;-59
2022/04/08 05:33:51;;;;;;;10.40;2.38;;;;;;;6.17;73.39;98003.53;5091525;28;20056;-63
2022/04/08 05:36:18;;;;;;;12.75;3.08;;;;;;;6.14;72.85;98001.13;5091226;28;20044;-63
2022/04/08 05:38:45;;;;;;;14.70;2.42;;;;;;;6.12;73.43;97998.63;5091691;28;20408;-60
2022/04/08 05:41:12;;;;;;;12.75;2.97;;;;;;;6.10;73.29;97995.25;5090928;28;20052;-60
2022/04/08 05:43:44;;;;;;;8.65;1.83;;;;;;;6.09;73.20;98001.44;5091867;28;20052;-61
2022/04/08 05:46:11;;;;;;;7.93;2.30;;;;;;;6.08;72.91;97999.75;5090503;28;20050;-61
2022/04/08 05:48:38;;;;;;;11.80;2.17;;;;;;;6.07;73.44;97994.63;5091610;28;20052;-61
2022/04/08 05:51:04;;;;;;;13.57;2.33;;;;;;;6.07;73.47;97994.63;5091165;28;20105;-60
2022/04/08 05:53:31;;;;;;;8.57;2.42;;;;;;;6.07;73.44;97995.50;5091227;28;20056;-60
2022/04/08 05:56:03;;;;;;;13.15;2.40;;;;;;;6.09;73.61;98004.03;5091367;28;20048;-61
2022/04/08 05:58:30;;;;;;;6.50;2.10;;;;;;;6.10;73.69;98005.72;5089822;28;20455;-62
2022/04/08 06:00:57;;;;;;;9.98;1.75;;;;;;;6.10;73.32;98005.72;5090989;28;20048;-61
2022/04/08 06:03:25;;;;;;;9.73;2.05;;;;;;;6.11;73.48;97996.97;5091254;28;20576;-61
2022/04/08 06:05:51;;;;;;;9.05;1.83;;;;;;;6.13;73.80;98002.91;5091047;28;20052;-61
2022/04/08 06:08:18;;;;;;;8.85;2.50;;;;;;;6.16;73.71;98004.47;5091478;28;20447;-63
2022/04/08 06:10:45;;;;;;;14.32;2.40;;;;;;;6.19;73.92;98006.03;5090480;28;20101;-61
2022/04/08 06:13:12;;;;;;;10.60;3.05;;;;;;;6.21;73.96;98012.81;5089745;28;20048;-61
2022/04/08 06:15:38;;;;;;;9.00;1.95;;;;;;;6.23;73.94;98010.97;5090784;28;20059;-60
2022/04/08 06:18:07;;;;;;;8.90;2.50;;;;;;;6.27;73.49;98003.75;5090803;28;20510;-59
2022/04/08 06:20:34;;;;;;;13.00;2.78;;;;;;;6.28;73.37;98002.78;5088489;28;20048;-63
2022/04/08 06:23:01;;;;;;;6.38;2.00;;;;;;;6.33;74.14;98013.81;5090464;28;20048;-61
2022/04/08 06:25:27;;;;;;;14.88;2.58;;;;;;;6.38;74.29;98014.31;5089646;28;20511;-61
2022/04/08 06:28:02;;;;;;;8.23;2.72;;;;;;;6.43;73.99;98023.63;5090872;28;20052;-60
2022/04/08 06:30:33;;;;;;;7.18;2.55;;;;;;;6.47;73.50;98023.28;5089375;28;20496;-61
2022/04/08 06:33:00;;;;;;;8.85;2.83;;;;;;;6.51;73.44;98023.94;5089433;28;20499;-61
2022/04/08 06:35:27;;;;;;;9.77;2.40;;;;;;;6.56;73.42;98027.06;5089411;28;20052;-61
2022/04/08 06:38:01;;;;;;;11.38;2.35;;;;;;;6.58;72.56;98014.72;5090635;28;20078;-60
2022/04/08 06:40:31;;;;;;;10.75;2.33;;;;;;;6.63;73.48;98011.81;5090491;28;20063;-62
2022/04/08 06:42:59;;;;;;;11.02;2.15;;;;;;;6.65;73.02;98026.44;5090653;28;20052;-60
2022/04/08 06:45:28;;;;;;;11.07;2.80;;;;;;;6.67;72.69;98015.03;5089543;28;20408;-61
2022/04/08 06:47:55;;;;;;;12.30;2.25;;;;;;;6.66;72.92;98014.22;5090640;28;20051;-62
2022/04/08 06:50:22;;;;;;;13.95;2.83;;;;;;;6.69;73.23;98015.78;5090312;28;20484;-61
2022/04/08 06:52:50;;;;;;;16.42;2.58;;;;;;;6.69;73.08;98026.22;5090600;28;20093;-62
2022/04/08 06:55:16;;;;;;;8.55;2.20;;;;;;;6.71;73.26;98026.94;5090149;28;20059;-61
2022/04/08 06:57:43;;;;;;;13.95;2.60;;;;;;;6.73;73.46;98027.69;5089857;28;20052;-61
2022/04/08 07:00:12;;;;;;;13.65;3.40;;;;;;;6.74;72.78;98030.22;5090077;28;20390;-60
2022/04/08 07:02:38;;;;;;;9.05;2.38;;;;;;;6.78;73.23;98026.41;5089427;28;20064;-60
2022/04/08 07:05:07;;;;;;;11.45;3.22;;;;;;;6.82;73.22;98034.06;5090599;28;20054;-62
2022/04/08 07:07:36;;;;;;;11.93;3.08;;;;;;;6.87;73.65;98035.41;5089342;28;20055;-61
2022/04/08 07:10:07;;;;;;;12.88;2.88;;;;;;;6.91;73.68;98022.94;5088906;28;20055;-61
2022/04/08 07:12:34;;;;;;;18.05;3.30;;;;;;;6.98;73.56;98033.81;5090429;28;20097;-61
2022/04/08 07:15:01;;;;;;;9.07;2.80;;;;;;;7.03;73.52;98029.13;5089059;28;20622;-61
2022/04/08 07:17:32;;;;;;;10.63;2.97;;;;;;;7.03;71.95;98027.31;5089973;28;20101;-61
2022/04/08 07:20:15;;;;;;;17.92;3.60;;;;;;;7.13;73.05;98035.34;5089032;28;20056;-61
2022/04/08 07:22:43;;;;;;;11.68;2.97;;;;;;;7.19;73.71;98033.25;5089058;28;20480;-62
2022/04/08 07:25:11;;;;;;;10.95;3.13;;;;;;;7.24;73.83;98025.91;5090103;28;20048;-62
2022/04/08 07:27:45;;;;;;;11.60;3.10;;;;;;;7.28;73.01;98028.19;5090464;28;20052;-62
2022/04/08 07:30:14;;;;;;;15.60;2.88;;;;;;;7.36;73.39;98024.22;5088814;28;20385;-60
2022/04/08 07:32:41;;;;;;;14.02;3.15;;;;;;;7.41;73.40;98030.75;5088988;28;20052;-62
2022/04/08 07:35:08;;;;;;;16.45;3.38;;;;;;;7.47;73.08;98016.41;5090107;28;20493;-61
2022/04/08 07:37:34;;;;;;;8.77;3.33;;;;;;;7.49;72.19;98018.91;5090228;28;20064;-66
2022/04/08 07:40:06;;;;;;;11.88;2.75;;;;;;;7.51;71.36;98014.41;5093109;28;20081;-61
2022/04/08 07:42:33;;;;;;;9.40;2.75;;;;;;;7.56;72.34;98026.19;5092817;28;20040;-61
2022/04/08 07:44:59;;;;;;;6.25;2.22;;;;;;;7.63;72.88;98020.53;5093967;28;20545;-62
2022/04/08 07:47:29;;;;;;;12.45;2.95;;;;;;;7.64;70.43;98025.66;5093985;28;20055;-63
2022/04/08 07:50:00;;;;;;;12.23;2.70;;;;;;;7.71;71.61;98022.59;5093445;28;20059;-61
2022/04/08 07:52:27;;;;;;;15.05;3.30;;;;;;;7.77;72.20;98016.88;5093563;28;20109;-62
2022/04/08 07:54:55;;;;;;;5.32;2.13;;;;;;;7.84;72.97;98022.53;5092639;28;20048;-63
2022/04/08 07:57:22;;;;;;;12.38;3.05;;;;;;;7.90;73.06;98025.53;5092382;28;20500;-63
2022/04/08 07:59:49;;;;;;;6.57;2.60;;;;;;;7.99;73.22;98017.94;5093451;28;20048;-63
2022/04/08 08:02:17;;;;;;;11.30;3.55;;;;;;;8.07;72.82;98026.03;5092148;28;20059;-60
2022/04/08 08:04:49;;;;;;;9.30;2.60;;;;;;;8.17;72.79;98029.66;5093280;28;20052;-62
2022/04/08 08:07:16;;;;;;;10.50;2.70;;;;;;;8.26;72.76;98028.13;5093745;28;20079;-62
2022/04/08 08:09:43;;;;;;;7.72;2.33;;;;;;;8.35;73.05;98027.41;5093173;28;20074;-63
2022/04/08 08:12:24;;;;;;;11.05;2.78;;;;;;;8.43;71.52;98019.00;5093161;28;20148;-64
2022/04/08 08:14:52;;;;;;;8.00;2.63;;;;;;;8.51;71.04;98025.41;5093224;28;20052;-61
2022/04/08 08:17:20;;;;;;;8.52;2.55;;;;;;;8.55;70.26;98025.09;5093092;28;20060;-61
2022/04/08 08:19:46;;;;;;;5.65;2.08;;;;;;;8.59;70.63;98026.53;5092556;28;20275;-63
2022/04/08 08:22:13;;;;;;;6.15;1.88;;;;;;;8.60;70.71;98020.34;5092907;28;20097;-63
2022/04/08 08:24:39;;;;;;;5.32;2.15;;;;;;;8.62;70.40;98020.22;5093162;28;20083;-62
2022/04/08 08:27:06;;;;;;;10.57;2.40;;;;;;;8.61;70.38;98034.28;5091724;28;20052;-62
2022/04/08 08:29:33;;;;;;;7.95;2.35;;;;;;;8.60;70.38;98030.81;5091640;28;20150;-62
2022/04/08 08:31:59;;;;;;;5.43;2.33;;;;;;;8.58;70.47;98024.88;5092985;28;20052;-61
2022/04/08 08:34:27;;;;;;;6.82;1.60;;;;;;;8.56;70.53;98026.78;5092901;28;20147;-62
2022/04/08 08:36:59;;;;;;;5.70;1.80;;;;;;;8.54;70.86;98033.09;5092675;28;20048;-62
2022/04/08 08:39:27;;;;;;;5.22;1.70;;;;;;;8.53;71.08;98031.44;5092725;28;20086;-62
2022/04/08 08:41:55;;;;;;;6.70;1.95;;;;;;;8.52;71.25;98030.53;5091499;28;20044;-62
2022/04/08 08:44:22;;;;;;;4.32;2.17;;;;;;;8.55;71.80;98026.88;5091187;28;20411;-61
2022/04/08 08:46:49;;;;;;;7.55;1.95;;;;;;;8.58;72.24;98024.03;5092466;28;20085;-62
2022/04/08 08:49:19;;;;;;;6.82;2.08;;;;;;;8.64;72.60;98015.72;5091127;28;20056;-61
2022/04/08 08:52:06;;;;;;;4.53;2.00;;;;;;;8.70;70.93;98020.47;5090114;28;20055;-62
2022/04/08 08:54:35;;;;;;;8.23;2.50;;;;;;;8.85;72.74;98023.69;5091507;28;20048;-61
2022/04/08 08:57:02;;;;;;;6.72;2.10;;;;;;;8.97;73.31;98024.50;5091040;28;20101;-62
2022/04/08 08:59:29;;;;;;;6.40;1.90;;;;;;;9.07;73.18;98024.63;5092248;28;20488;-61
2022/04/08 09:02:01;;;;;;;7.15;2.72;;;;;;;9.20;71.31;98019.22;5091126;28;20059;-61
2022/04/08 09:04:28;;;;;;;5.55;2.05;;;;;;;9.32;72.12;98013.97;5092269;28;20146;-63
2022/04/08 09:06:55;;;;;;;7.60;2.28;;;;;;;9.41;71.60;98015.03;5091050;28;20698;-61
2022/04/08 09:09:30;;;;;;;7.10;1.75;;;;;;;9.46;67.62;98013.69;5091827;28;20044;-63
2022/04/08 09:12:09;;;;;;;9.57;2.05;;;;;;;9.52;66.12;98009.72;5090846;28;20048;-61
2022/04/08 09:14:36;;;;;;;5.45;1.58;;;;;;;9.62;69.39;98012.44;5092522;28;20052;-61
2022/04/08 09:17:03;;;;;;;6.10;1.70;;;;;;;9.65;68.67;98004.34;5092174;28;20455;-63
2022/04/08 09:19:33;;;;;;;8.15;2.00;;;;;;;9.69;68.42;98000.50;5091924;28;20507;-62
2022/04/08 09:22:00;;;;;;;3.17;1.40;;;;;;;9.75;69.27;97999.97;5092074;28;20050;-61
2022/04/08 09:24:27;;;;;;;6.60;1.55;;;;;;;9.81;68.90;98005.69;5092323;28;20048;-62
2022/04/08 09:26:55;;;;;;;6.63;1.63;;;;;;;9.87;68.53;98007.81;5091885;28;20039;-62
2022/04/08 09:29:24;;;;;;;6.85;1.38;;;;;;;9.92;66.37;97997.75;5091640;28;20101;-61
2022/04/08 09:31:51;;;;;;;7.05;1.60;;;;;;;9.99;68.23;97980.50;5090620;28;20450;-62
2022/04/08 09:34:20;;;;;;;5.60;1.48;;;;;;;10.04;66.93;97993.28;5091805;28;20055;-62
2022/04/08 09:36:47;;;;;;;7.72;1.33;;;;;;;10.11;68.50;97977.81;5091763;28;20048;-61
2022/04/08 09:39:14;;;;;;;4.45;1.58;;;;;;;10.19;68.94;97975.38;5091654;28;20048;-62
2022/04/08 09:41:46;;;;;;;8.25;1.70;;;;;;;10.26;65.23;97980.94;5091732;28;20094;-61
2022/04/08 09:44:14;;;;;;;5.00;1.20;;;;;;;10.34;67.08;97977.66;5091585;28;20059;-62
2022/04/08 09:46:41;;;;;;;4.80;1.35;;;;;;;10.39;66.02;97972.88;5091272;28;20496;-62
2022/04/08 09:49:08;;;;;;;7.43;1.70;;;;;;;10.41;64.36;97974.41;5091289;28;20048;-62
2022/04/08 09:51:39;;;;;;;3.35;1.00;;;;;;;10.42;63.47;97962.91;5091603;28;20044;-61
2022/04/08 09:54:10;;;;;;;4.65;1.30;;;;;;;10.45;59.26;97974.16;5090484;28;20052;-63
2022/04/08 09:56:38;;;;;;;6.85;1.10;;;;;;;10.53;64.42;97955.91;5089956;28;20066;-62
2022/04/08 09:59:16;;;;;;;4.20;1.20;;;;;;;10.54;56.88;97953.16;5090370;28;20055;-63
2022/04/08 10:02:03;;;;;;;4.00;1.40;;;;;;;10.67;64.97;97952.09;5090244;28;20161;-61
2022/04/08 10:04:32;;;;;;;5.00;1.55;;;;;;;10.74;64.70;97958.50;5089897;28;20048;-61
2022/04/08 10:07:01;;;;;;;8.10;1.67;;;;;;;10.82;64.35;97963.94;5091079;28;20095;-63
2022/04/08 10:09:33;;;;;;;5.38;1.70;;;;;;;10.91;62.52;97948.28;5089744;28;20051;-62
2022/04/08 10:12:15;;;;;;;6.20;1.55;;;;;;;10.96;60.55;97946.09;5090893;28;20055;-63
2022/04/08 10:14:43;;;;;;;6.20;1.60;;;;;;;11.06;63.31;97949.56;5089960;28;20557;-62
2022/04/08 10:17:10;;;;;;;5.53;1.52;;;;;;;11.12;63.43;97944.72;5090730;28;20488;-61
2022/04/08 10:19:37;;;;;;;6.25;1.40;;;;;;;11.15;63.01;97957.63;5090562;28;20047;-61
2022/04/08 10:22:20;;;;;;;9.30;1.77;;;;;;;11.14;58.35;97943.63;5090740;28;20052;-63
2022/04/08 10:24:55;;;;;;;6.07;1.60;;;;;;;11.18;58.16;97955.56;5089568;28;20051;-61
2022/04/08 10:27:38;;;;;;;5.47;1.40;;;;;;;11.23;59.88;97949.03;5089526;28;20048;-63
2022/04/08 10:30:20;;;;;;;5.28;1.42;;;;;;;11.32;61.05;97935.88;5089344;28;20048;-63
2022/04/08 10:32:47;;;;;;;5.20;1.67;;;;;;;11.45;64.06;97937.44;5090639;28;20044;-62
2022/04/08 10:35:19;;;;;;;4.10;1.50;;;;;;;11.57;61.90;97928.41;5089627;28;20044;-62
2022/04/08 10:38:00;;;;;;;6.13;1.48;;;;;;;11.69;60.75;97925.63;5090570;28;20044;-61
2022/04/08 10:40:31;;;;;;;7.13;1.42;;;;;;;11.84;61.97;97926.00;5089294;28;20052;-61
2022/04/08 10:43:08;;;;;;;8.13;1.58;;;;;;;11.94;63.36;97926.84;5089216;28;20048;-62
2022/04/08 10:45:35;;;;;;;11.18;1.85;;;;;;;11.94;61.39;97937.41;5090614;28;20052;-63
2022/04/08 10:48:11;;;;;;;6.53;1.33;;;;;;;11.83;52.38;97929.63;5089312;28;20070;-63
2022/04/08 10:50:39;;;;;;;3.47;1.50;;;;;;;11.83;59.94;97933.09;5090281;28;20052;-62
2022/04/08 10:53:10;;;;;;;8.30;1.55;;;;;;;11.80;60.88;97928.09;5089226;28;20048;-62
2022/04/08 10:55:54;;;;;;;7.15;1.90;;;;;;;11.76;55.50;97921.44;5090428;28;20071;-62
2022/04/08 10:58:30;;;;;;;5.80;1.27;;;;;;;11.81;58.65;97924.50;5089115;28;20048;-63
2022/04/08 11:00:57;;;;;;;6.88;1.73;;;;;;;11.86;60.35;97924.91;5090192;28;20044;-61
2022/04/08 11:03:28;;;;;;;7.00;1.63;;;;;;;11.85;57.28;97930.34;5090605;28;20059;-61
2022/04/08 11:05:55;;;;;;;4.70;1.60;;;;;;;11.86;60.17;97917.00;5089296;28;20063;-63
2022/04/08 11:08:24;;;;;;;4.35;1.38;;;;;;;11.85;59.60;97915.34;5088956;28;20056;-62
2022/04/08 11:10:58;;;;;;;4.20;1.45;;;;;;;11.86;56.40;97918.81;5089185;28;20060;-64
2022/04/08 11:13:25;;;;;;;8.35;1.60;;;;;;;11.95;60.80;97920.59;5090631;28;20048;-63
2022/04/08 11:15:52;;;;;;;5.70;1.50;;;;;;;12.03;60.78;97922.50;5094425;28;20113;-62
2022/04/08 11:18:19;;;;;;;3.92;1.48;;;;;;;12.09;58.72;97919.34;5094331;28;20672;-62
2022/04/08 11:20:48;;;;;;;8.52;1.70;;;;;;;12.16;58.75;97916.97;5092863;28;20063;-62
2022/04/08 11:23:25;;;;;;;8.20;1.77;;;;;;;12.15;55.12;97922.38;5094255;28;20109;-62
2022/04/08 11:25:52;;;;;;;5.75;1.50;;;;;;;12.20;59.17;97920.16;5093100;28;20062;-62
2022/04/08 11:28:22;;;;;;;5.72;1.42;;;;;;;12.20;58.58;97923.63;5094283;28;20131;-62
2022/04/08 11:30:58;;;;;;;6.30;1.52;;;;;;;12.15;51.84;97910.00;5092850;28;20047;-62
2022/04/08 11:33:26;;;;;;;5.28;1.90;;;;;;;12.19;58.55;97910.56;5093325;28;20055;-62
2022/04/08 11:36:02;;;;;;;7.47;1.13;;;;;;;12.17;55.38;97904.59;5093034;28;20702;-62
2022/04/08 11:38:30;;;;;;;3.88;1.52;;;;;;;12.21;58.14;97913.88;5092764;28;20429;-63
2022/04/08 11:41:19;;;;;;;5.75;1.45;;;;;;;12.30;59.25;97923.56;5093002;28;20060;-62
2022/04/08 11:43:46;;;;;;;7.07;1.73;;;;;;;12.43;58.47;97927.69;5092819;28;20113;-62